Andalusia, Alabama
Current Conditions -  °F | °C
As of 6:56 PM on Monday 20 Oct 2014 (Local Time) from K79J Reporting Station
Clear Clear  
Wind Chill: 19°   Ceiling: Unl
Heat Index: 19°   Visibility: 10mi
Dew Point: 13°   Wind: 0mph
Humidity: 66%   Direction: NA
Pressure: 30"   Gusts: NA
Location:  31.32°N, 86.49°W
Report Text: K79J 202356Z AUTO 00000KT 10SM CLR 19/13 A3000 RMK AO2 SLP155 T01940128 10278 20194 53002
Loading
Personal Weather Stations






























Interactive Weather Map
Tropical Storm Tracking
New forecast layout! Learn more

10-Day Weather Forecast

Advertisements
Track Severe Weather on mobile